Menifee, AR

6:30 AM CDT on May 06, 2015 (GMT -0500)
Russellville Regional | | Change Station
CLOSE
Current Station
Airport
Location: Russellville,
Elevation: 404 ft
Nearby Weather Stations

Elev 404 ft 35.26 °N, 93.09 °W | Updated 37 minutes ago

Partly Cloudy
Partly Cloudy
68 °F
Feels Like 68 °F
N
5
Wind Variable Wind from East

Today
High -- | Low -- °F
--% Chance of Precip.
Yesterday
High -- | Low -- °F
Precip. -- in
6:14 AM 7:59 PM
Waning Gibbous, 94% visible
Pressure 30.04 in
Visibility 10.0 miles
Clouds Mostly Cloudy 11000 ft
Dew Point 57 °F
Humidity 68%
Rainfall 0.00 in
Snow Depth Not available.
UV 0 out of 12
Pollen 8.70 out of 12
Air Quality Not available.
Flu Activity No Activity
METAR KRUE 061053Z AUTO 10004KT 10SM BKN110 20/14 A3006 RMK AO2 SLP173 T02000139

More Conditions Fewer Conditions

Pressure 30.04 in
Visibility 10.0 miles
Clouds Mostly Cloudy 11000 ft
Dew Point 57 °F
Humidity 68%
Rainfall 0.00 in
Snow Depth Not available.
UV 0 out of 12
Pollen 8.70 out of 12
Air Quality Not available.
Flu Activity No Activity
METAR KRUE 061053Z AUTO 10004KT 10SM BKN110 20/14 A3006 RMK AO2 SLP173 T02000139

More Conditions Fewer Conditions

10-Day Weather Forecast

Almanac

Astronomy

May. 06, 2015 Rise Set
Actual Time
Civil Twilight
Nautical Twilight
Astronomical Twilight
Moon
Length of Visible Light
Length of Day
Tomorrow will be .
, % of the Moon is Illuminated

Today's Extremes

State Highs State Lows

Community

WunderPhotos

Upload Photos

1,818,880 photos uploaded!

WunderBlogs® & News

Nearby

Air Quality

  Air Quality AQ Index Pollutant
Not available.

Snow Depth

Station Depth Elevation

Earthquake Activity

City Distance Mag. Time & Date
Minimum magnitude displayed is 2.5.

Coastal Water Temperatures

Place Temperature

Stations

Nearby Weather Stations

Station Location Temp. Windchill Dew Point Humidity Wind Precip. Elev Updated Type